createdAt,value
2023-07-22T00:03:08.106Z,82.98
2023-07-22T00:09:10.578Z,84.12
2023-07-22T00:15:05.604Z,83.69
2023-07-22T00:20:32.462Z,84.06
2023-07-22T00:27:22.204Z,84.42
2023-07-22T00:34:00.013Z,83.60
2023-07-22T00:40:34.916Z,83.50
2023-07-22T00:46:02.932Z,81.34
2023-07-22T00:52:12.182Z,82.50
2023-07-22T00:58:36.088Z,83.20
2023-07-22T01:04:32.026Z,84.37
2023-07-22T01:10:40.821Z,84.84
2023-07-22T01:16:56.714Z,84.74
2023-07-22T01:23:05.712Z,82.36
2023-07-22T01:28:42.532Z,82.42
2023-07-22T01:34:31.098Z,82.78
2023-07-22T01:40:47.840Z,83.30
2023-07-22T01:47:04.060Z,83.65
2023-07-22T01:53:57.425Z,83.34
2023-07-22T01:59:56.611Z,82.90
2023-07-22T02:06:25.261Z,82.81
2023-07-22T02:13:14.099Z,82.68
2023-07-22T02:19:42.023Z,82.39
2023-07-22T02:26:00.965Z,83.08
2023-07-22T02:32:46.720Z,83.33
2023-07-22T02:38:41.599Z,83.17
2023-07-22T02:45:17.409Z,83.71
2023-07-22T02:51:21.943Z,83.86
2023-07-22T02:57:33.780Z,83.67
2023-07-22T03:04:18.571Z,84.53
2023-07-22T03:10:22.008Z,85.38
2023-07-22T03:16:05.744Z,85.45
2023-07-22T03:21:58.454Z,85.43
2023-07-22T03:28:21.499Z,85.34
2023-07-22T03:34:04.991Z,85.33
2023-07-22T03:40:19.110Z,85.05
2023-07-22T03:45:49.173Z,84.97
2023-07-22T03:51:19.958Z,85.07
2023-07-22T03:57:03.852Z,84.84
2023-07-22T04:03:09.994Z,84.43
2023-07-22T04:09:09.013Z,83.95
2023-07-22T04:15:19.521Z,83.70
2023-07-22T04:21:55.100Z,83.76
2023-07-22T04:28:47.159Z,83.28
2023-07-22T04:35:23.868Z,83.18
2023-07-22T04:41:15.297Z,82.96
2023-07-22T04:48:08.948Z,82.61
2023-07-22T04:54:35.045Z,81.66
2023-07-22T05:00:53.631Z,81.18
2023-07-22T05:06:37.885Z,80.39
2023-07-22T05:13:05.448Z,79.81
2023-07-22T05:18:46.118Z,79.40
2023-07-22T05:24:24.915Z,79.35
2023-07-22T05:30:34.236Z,79.05
2023-07-22T05:35:48.959Z,78.71
2023-07-22T05:40:57.694Z,77.69
2023-07-22T05:46:00.379Z,77.10
2023-07-22T05:51:50.841Z,76.52
2023-07-22T05:57:01.312Z,75.98
2023-07-22T06:03:16.677Z,74.32
2023-07-22T06:08:21.663Z,74.10
2023-07-22T06:14:20.442Z,71.95
2023-07-22T06:19:56.504Z,70.53
2023-07-22T06:26:00.658Z,71.83
2023-07-22T06:31:52.649Z,70.94
2023-07-22T06:37:41.495Z,70.71
2023-07-22T06:43:47.355Z,71.05
2023-07-22T06:50:02.330Z,70.36
2023-07-22T06:55:55.231Z,69.45
2023-07-22T07:01:19.903Z,68.24
2023-07-22T07:07:13.708Z,67.13
2023-07-22T07:13:43.039Z,66.37
2023-07-22T07:20:01.800Z,64.84
2023-07-22T07:26:12.191Z,63.35
2023-07-22T07:32:02.787Z,63.68
2023-07-22T07:37:42.678Z,63.37
2023-07-22T07:44:03.782Z,62.83
2023-07-22T07:49:51.645Z,61.64
2023-07-22T07:56:05.669Z,60.25
2023-07-22T08:02:11.360Z,59.50
2023-07-22T08:08:42.826Z,60.36
2023-07-22T08:15:06.050Z,61.46
2023-07-22T08:21:38.835Z,60.24
2023-07-22T08:27:51.109Z,59.30
2023-07-22T08:33:48.236Z,58.54
2023-07-22T08:40:00.734Z,57.01
2023-07-22T08:45:58.910Z,57.00
2023-07-22T08:51:38.359Z,57.06
2023-07-22T08:57:31.199Z,56.89
2023-07-22T09:02:41.333Z,57.89
2023-07-22T09:08:28.547Z,58.62
2023-07-22T09:13:38.250Z,57.72
2023-07-22T09:19:05.947Z,56.41
2023-07-22T09:24:30.718Z,55.84
2023-07-22T09:29:51.246Z,55.09
2023-07-22T09:35:53.012Z,53.93
2023-07-22T09:40:55.408Z,53.86
2023-07-22T09:46:34.377Z,53.57
2023-07-22T09:52:03.166Z,50.97
2023-07-22T09:57:23.772Z,49.59
2023-07-22T10:03:03.369Z,49.11
2023-07-22T10:34:55.794Z,46.59
2023-07-22T10:40:31.448Z,47.06
2023-07-22T10:45:40.520Z,45.28
2023-07-22T10:50:52.933Z,45.50
2023-07-22T10:56:07.836Z,44.50
2023-07-22T11:01:28.151Z,43.57
2023-07-22T11:06:33.693Z,42.94
2023-07-22T11:12:16.815Z,43.72
2023-07-22T11:17:30.943Z,44.49
2023-07-22T11:22:53.472Z,44.82
2023-07-22T11:27:58.900Z,44.94
2023-07-22T11:33:01.549Z,45.43
2023-07-22T11:38:13.023Z,44.56
2023-07-22T11:43:20.935Z,45.52
2023-07-22T11:48:23.695Z,45.67
2023-07-22T11:53:28.907Z,45.18
2023-07-22T11:58:41.530Z,45.15
2023-07-22T12:04:11.204Z,44.88
2023-07-22T12:09:24.751Z,45.98
2023-07-22T12:14:43.593Z,46.30
2023-07-22T12:20:13.537Z,46.10
2023-07-22T12:25:47.252Z,45.12
2023-07-22T12:30:58.692Z,44.43
2023-07-22T12:36:26.513Z,43.95
2023-07-22T12:42:03.472Z,44.40
2023-07-22T12:47:13.556Z,45.10
2023-07-22T12:52:39.278Z,44.91
2023-07-22T12:58:15.311Z,45.71
2023-07-22T13:03:38.732Z,46.63
2023-07-22T13:09:13.811Z,46.26
2023-07-22T13:14:32.695Z,45.38
2023-07-22T13:19:37.898Z,43.77
2023-07-22T13:24:55.259Z,42.91
2023-07-22T13:29:58.563Z,43.04
2023-07-22T13:35:00.827Z,42.56
2023-07-22T13:40:23.249Z,42.54
2023-07-22T13:45:36.961Z,42.80
2023-07-22T13:51:12.323Z,41.65
2023-07-22T13:56:19.707Z,41.02
2023-07-22T14:01:27.356Z,39.76
2023-07-22T14:06:37.730Z,38.08
2023-07-22T14:11:54.692Z,37.98
2023-07-22T14:17:08.950Z,37.50
2023-07-22T14:22:13.744Z,37.30
2023-07-22T14:27:27.021Z,37.46
2023-07-22T14:32:44.273Z,37.72
2023-07-22T14:37:50.041Z,37.79
2023-07-22T14:43:15.981Z,36.69
2023-07-22T14:48:18.603Z,36.92
2023-07-22T14:53:44.150Z,36.88
2023-07-22T14:59:17.948Z,36.67
2023-07-22T15:04:49.635Z,37.01
2023-07-22T15:10:39.503Z,36.95
2023-07-22T15:16:00.475Z,36.75
2023-07-22T15:21:05.615Z,37.42
2023-07-22T15:26:10.760Z,37.23
2023-07-22T15:31:13.431Z,36.47
2023-07-22T15:36:16.110Z,36.68
2023-07-22T15:41:39.198Z,37.53
2023-07-22T15:46:41.417Z,39.85
2023-07-22T15:51:56.965Z,40.33
2023-07-22T15:57:19.643Z,40.49
2023-07-22T16:02:45.104Z,41.21
2023-07-22T16:07:52.670Z,41.82
2023-07-22T16:12:58.194Z,41.45
2023-07-22T16:18:21.023Z,41.50
2023-07-22T16:23:58.867Z,41.36
2023-07-22T16:29:31.758Z,41.80
2023-07-22T16:34:57.341Z,42.30
2023-07-22T16:40:11.647Z,42.71
2023-07-22T16:45:16.375Z,42.96
2023-07-22T16:50:24.747Z,43.11
2023-07-22T16:55:41.693Z,43.04
2023-07-22T17:00:49.221Z,42.72
2023-07-22T17:05:57.611Z,42.57
2023-07-22T17:11:09.016Z,42.93
2023-07-22T17:16:14.598Z,42.98
2023-07-22T17:21:19.863Z,42.98
2023-07-22T17:26:25.345Z,42.94
2023-07-22T17:31:27.966Z,42.41
2023-07-22T17:36:33.374Z,40.99
2023-07-22T17:41:42.728Z,40.72
2023-07-22T17:46:50.283Z,40.80
2023-07-22T17:51:55.828Z,41.41
2023-07-22T17:56:58.609Z,42.65
2023-07-22T18:02:01.883Z,43.38
2023-07-22T18:07:13.356Z,44.20
2023-07-22T18:12:27.033Z,45.13
2023-07-22T18:18:11.396Z,46.55
2023-07-22T18:23:16.886Z,47.51
2023-07-22T18:28:29.379Z,48.21
2023-07-22T18:34:10.178Z,49.12
2023-07-22T18:39:25.350Z,49.56
2023-07-22T18:44:56.508Z,50.43
2023-07-22T18:49:59.342Z,51.02
2023-07-22T18:55:01.878Z,51.50
2023-07-22T19:00:05.333Z,51.37
2023-07-22T19:05:08.246Z,51.87
2023-07-22T19:10:11.676Z,52.26
2023-07-22T19:15:13.964Z,53.09
2023-07-22T19:20:25.754Z,53.32
2023-07-22T19:25:40.279Z,53.98
2023-07-22T19:30:42.715Z,54.57
2023-07-22T19:36:15.439Z,54.99
2023-07-22T19:41:17.934Z,55.85
2023-07-22T19:46:20.460Z,56.65
2023-07-22T19:51:40.018Z,57.82
2023-07-22T19:56:48.531Z,58.75
2023-07-22T20:01:53.720Z,59.66
2023-07-22T20:06:56.288Z,60.18
2023-07-22T20:12:31.075Z,62.02
2023-07-22T20:18:19.612Z,65.38
2023-07-22T20:23:37.077Z,66.17
2023-07-22T20:28:48.529Z,65.98
2023-07-22T20:33:53.771Z,65.19
2023-07-22T20:39:01.893Z,65.91
2023-07-22T20:44:08.335Z,66.63
2023-07-22T20:49:13.128Z,67.21
2023-07-22T20:54:34.598Z,67.38
2023-07-22T20:59:58.226Z,67.77
2023-07-22T21:05:17.042Z,68.37
2023-07-22T21:10:30.111Z,67.44
2023-07-22T21:15:42.741Z,64.98
2023-07-22T21:20:44.859Z,64.05
2023-07-22T21:25:57.293Z,64.46
2023-07-22T21:31:56.695Z,65.27
2023-07-22T21:37:09.788Z,66.37
2023-07-22T21:42:17.979Z,67.97
2023-07-22T21:47:40.686Z,69.33
2023-07-22T21:52:45.991Z,70.50
2023-07-22T21:58:09.319Z,70.47
2023-07-22T22:03:34.539Z,69.68
2023-07-22T22:08:47.400Z,69.66
2023-07-22T22:13:52.095Z,67.87
2023-07-22T22:19:49.350Z,68.72
2023-07-22T22:25:18.506Z,70.88
2023-07-22T22:30:26.181Z,71.23
2023-07-22T22:36:39.630Z,69.94
2023-07-22T22:43:15.402Z,68.26
2023-07-22T22:48:54.029Z,69.45
2023-07-22T22:54:20.166Z,68.58
2023-07-22T22:59:28.299Z,70.02
2023-07-22T23:04:47.086Z,71.30
2023-07-22T23:09:52.883Z,71.68
2023-07-22T23:15:07.652Z,71.93
2023-07-22T23:21:08.350Z,72.22
2023-07-22T23:26:30.280Z,72.52
2023-07-22T23:32:37.878Z,71.58
2023-07-22T23:37:58.896Z,70.83
2023-07-22T23:43:29.918Z,69.31
2023-07-22T23:49:07.998Z,71.43
2023-07-22T23:54:21.735Z,71.96
2023-07-22T23:59:59.101Z,72.03
